sensor_id;sensor_type;location;lat;lon;timestamp;temperature;humidity
2030;DHT22;1020;48.854;8.830;2023-04-24T00:00:37;10.00;1.00
2030;DHT22;1020;48.854;8.830;2023-04-24T00:03:07;10.00;1.00
2030;DHT22;1020;48.854;8.830;2023-04-24T00:05:34;10.10;1.00
2030;DHT22;1020;48.854;8.830;2023-04-24T00:08:01;10.10;1.00
2030;DHT22;1020;48.854;8.830;2023-04-24T00:10:29;10.10;99.90
2030;DHT22;1020;48.854;8.830;2023-04-24T00:12:56;10.20;99.90
2030;DHT22;1020;48.854;8.830;2023-04-24T00:15:23;10.40;99.90
2030;DHT22;1020;48.854;8.830;2023-04-24T00:17:50;10.40;99.90
2030;DHT22;1020;48.854;8.830;2023-04-24T00:20:17;10.30;99.90
2030;DHT22;1020;48.854;8.830;2023-04-24T00:22:44;10.40;99.90
2030;DHT22;1020;48.854;8.830;2023-04-24T00:25:11;10.40;99.90
2030;DHT22;1020;48.854;8.830;2023-04-24T00:27:39;10.40;99.90
2030;DHT22;1020;48.854;8.830;2023-04-24T00:30:07;10.40;99.90
2030;DHT22;1020;48.854;8.830;2023-04-24T00:32:33;10.50;6.10
2030;DHT22;1020;48.854;8.830;2023-04-24T00:35:00;10.50;1.00
2030;DHT22;1020;48.854;8.830;2023-04-24T00:37:27;10.50;1.00
2030;DHT22;1020;48.854;8.830;2023-04-24T00:39:54;10.50;1.00
2030;DHT22;1020;48.854;8.830;2023-04-24T00:42:20;10.50;1.00
2030;DHT22;1020;48.854;8.830;2023-04-24T00:44:49;10.50;1.00
2030;DHT22;1020;48.854;8.830;2023-04-24T00:47:16;10.40;1.00
2030;DHT22;1020;48.854;8.830;2023-04-24T00:49:43;10.50;1.00
2030;DHT22;1020;48.854;8.830;2023-04-24T00:52:10;10.50;1.00
2030;DHT22;1020;48.854;8.830;2023-04-24T00:54:38;10.50;1.00
2030;DHT22;1020;48.854;8.830;2023-04-24T00:57:05;10.40;1.00
2030;DHT22;1020;48.854;8.830;2023-04-24T00:59:32;10.40;1.00
2030;DHT22;1020;48.854;8.830;2023-04-24T01:02:00;10.40;1.00
2030;DHT22;1020;48.854;8.830;2023-04-24T01:04:27;10.50;1.00
2030;DHT22;1020;48.854;8.830;2023-04-24T01:06:55;10.50;1.00
2030;DHT22;1020;48.854;8.830;2023-04-24T01:09:23;13.10;1.00
2030;DHT22;1020;48.854;8.830;2023-04-24T01:11:50;10.50;1.00
2030;DHT22;1020;48.854;8.830;2023-04-24T01:14:16;10.40;99.90
2030;DHT22;1020;48.854;8.830;2023-04-24T01:16:43;10.40;99.90
2030;DHT22;1020;48.854;8.830;2023-04-24T01:19:13;10.30;1.00
2030;DHT22;1020;48.854;8.830;2023-04-24T01:21:42;10.20;1.00
2030;DHT22;1020;48.854;8.830;2023-04-24T01:24:11;10.30;99.90
2030;DHT22;1020;48.854;8.830;2023-04-24T01:26:38;10.20;1.00
2030;DHT22;1020;48.854;8.830;2023-04-24T01:29:05;10.20;1.00
2030;DHT22;1020;48.854;8.830;2023-04-24T01:31:32;10.10;1.00
2030;DHT22;1020;48.854;8.830;2023-04-24T01:33:59;10.10;1.00
2030;DHT22;1020;48.854;8.830;2023-04-24T01:36:27;10.00;1.00
2030;DHT22;1020;48.854;8.830;2023-04-24T01:38:55;10.00;1.00
2030;DHT22;1020;48.854;8.830;2023-04-24T01:41:23;10.10;1.00
2030;DHT22;1020;48.854;8.830;2023-04-24T01:43:51;10.10;1.00
2030;DHT22;1020;48.854;8.830;2023-04-24T01:46:18;10.00;1.00
2030;DHT22;1020;48.854;8.830;2023-04-24T01:48:45;10.00;1.00
2030;DHT22;1020;48.854;8.830;2023-04-24T01:51:12;10.00;1.00
2030;DHT22;1020;48.854;8.830;2023-04-24T01:53:39;10.00;1.00
2030;DHT22;1020;48.854;8.830;2023-04-24T01:56:06;10.00;1.00
2030;DHT22;1020;48.854;8.830;2023-04-24T01:58:34;10.00;1.00
2030;DHT22;1020;48.854;8.830;2023-04-24T02:01:01;10.10;1.00
2030;DHT22;1020;48.854;8.830;2023-04-24T02:03:28;10.10;1.00
2030;DHT22;1020;48.854;8.830;2023-04-24T02:05:55;10.10;1.00
2030;DHT22;1020;48.854;8.830;2023-04-24T02:08:21;10.20;1.00
2030;DHT22;1020;48.854;8.830;2023-04-24T02:10:48;10.10;1.00
2030;DHT22;1020;48.854;8.830;2023-04-24T02:13:15;10.10;1.00
2030;DHT22;1020;48.854;8.830;2023-04-24T02:15:43;10.10;1.00
2030;DHT22;1020;48.854;8.830;2023-04-24T02:18:10;10.00;1.00
2030;DHT22;1020;48.854;8.830;2023-04-24T02:20:38;10.00;30.80
2030;DHT22;1020;48.854;8.830;2023-04-24T02:23:05;9.90;79.00
2030;DHT22;1020;48.854;8.830;2023-04-24T02:25:32;9.80;99.90
2030;DHT22;1020;48.854;8.830;2023-04-24T02:27:59;9.70;99.90
2030;DHT22;1020;48.854;8.830;2023-04-24T02:30:26;9.70;99.90
2030;DHT22;1020;48.854;8.830;2023-04-24T02:32:54;9.60;99.90
2030;DHT22;1020;48.854;8.830;2023-04-24T02:35:21;9.50;99.90
2030;DHT22;1020;48.854;8.830;2023-04-24T02:37:47;9.50;99.90
2030;DHT22;1020;48.854;8.830;2023-04-24T02:40:14;9.50;99.90
2030;DHT22;1020;48.854;8.830;2023-04-24T02:42:41;9.40;99.90
2030;DHT22;1020;48.854;8.830;2023-04-24T02:45:08;9.40;99.90
2030;DHT22;1020;48.854;8.830;2023-04-24T02:47:35;9.40;99.90
2030;DHT22;1020;48.854;8.830;2023-04-24T02:50:04;9.30;99.90
2030;DHT22;1020;48.854;8.830;2023-04-24T02:52:31;9.30;99.90
2030;DHT22;1020;48.854;8.830;2023-04-24T02:54:58;9.20;99.90
2030;DHT22;1020;48.854;8.830;2023-04-24T02:57:25;9.20;99.90
2030;DHT22;1020;48.854;8.830;2023-04-24T02:59:52;9.20;99.90
2030;DHT22;1020;48.854;8.830;2023-04-24T03:02:18;9.10;99.90
2030;DHT22;1020;48.854;8.830;2023-04-24T03:04:46;9.10;99.90
2030;DHT22;1020;48.854;8.830;2023-04-24T03:07:14;9.10;99.90
2030;DHT22;1020;48.854;8.830;2023-04-24T03:09:41;9.20;99.90
2030;DHT22;1020;48.854;8.830;2023-04-24T03:12:08;9.10;99.90
2030;DHT22;1020;48.854;8.830;2023-04-24T03:14:35;9.10;99.90
2030;DHT22;1020;48.854;8.830;2023-04-24T03:17:02;9.00;99.90
2030;DHT22;1020;48.854;8.830;2023-04-24T03:19:28;9.00;99.90
2030;DHT22;1020;48.854;8.830;2023-04-24T03:21:55;9.00;99.90
2030;DHT22;1020;48.854;8.830;2023-04-24T03:24:23;9.00;99.90
2030;DHT22;1020;48.854;8.830;2023-04-24T03:26:53;10.50;99.90
2030;DHT22;1020;48.854;8.830;2023-04-24T03:29:22;9.00;99.90
2030;DHT22;1020;48.854;8.830;2023-04-24T03:31:49;9.00;99.90
2030;DHT22;1020;48.854;8.830;2023-04-24T03:34:15;9.00;99.90
2030;DHT22;1020;48.854;8.830;2023-04-24T03:36:42;9.00;99.90
2030;DHT22;1020;48.854;8.830;2023-04-24T03:39:09;9.00;99.90
2030;DHT22;1020;48.854;8.830;2023-04-24T03:41:38;9.00;99.90
2030;DHT22;1020;48.854;8.830;2023-04-24T03:44:04;9.00;99.90
2030;DHT22;1020;48.854;8.830;2023-04-24T03:46:31;9.10;99.90
2030;DHT22;1020;48.854;8.830;2023-04-24T03:48:58;9.10;99.90
2030;DHT22;1020;48.854;8.830;2023-04-24T03:51:25;9.10;99.90
2030;DHT22;1020;48.854;8.830;2023-04-24T03:53:53;9.10;99.90
2030;DHT22;1020;48.854;8.830;2023-04-24T03:56:20;9.10;99.90
2030;DHT22;1020;48.854;8.830;2023-04-24T03:58:48;9.00;99.90
2030;DHT22;1020;48.854;8.830;2023-04-24T04:01:15;8.60;99.90
2030;DHT22;1020;48.854;8.830;2023-04-24T04:03:42;8.60;99.90
2030;DHT22;1020;48.854;8.830;2023-04-24T04:06:09;8.40;99.90
2030;DHT22;1020;48.854;8.830;2023-04-24T04:08:38;8.30;99.90
2030;DHT22;1020;48.854;8.830;2023-04-24T04:11:05;8.20;99.90
2030;DHT22;1020;48.854;8.830;2023-04-24T04:13:31;8.20;99.90
2030;DHT22;1020;48.854;8.830;2023-04-24T04:16:00;8.10;99.90
2030;DHT22;1020;48.854;8.830;2023-04-24T04:18:26;8.00;99.90
2030;DHT22;1020;48.854;8.830;2023-04-24T04:20:53;8.00;99.90
2030;DHT22;1020;48.854;8.830;2023-04-24T04:23:20;7.90;99.90
2030;DHT22;1020;48.854;8.830;2023-04-24T04:25:47;7.90;99.90
2030;DHT22;1020;48.854;8.830;2023-04-24T04:28:13;7.90;99.90
2030;DHT22;1020;48.854;8.830;2023-04-24T04:30:40;7.90;99.90
2030;DHT22;1020;48.854;8.830;2023-04-24T04:33:09;7.80;99.90
2030;DHT22;1020;48.854;8.830;2023-04-24T04:35:36;7.80;99.90
2030;DHT22;1020;48.854;8.830;2023-04-24T04:38:02;7.80;99.90
2030;DHT22;1020;48.854;8.830;2023-04-24T04:40:30;7.80;99.90
2030;DHT22;1020;48.854;8.830;2023-04-24T04:42:56;7.70;99.90
2030;DHT22;1020;48.854;8.830;2023-04-24T04:45:23;7.70;99.90
2030;DHT22;1020;48.854;8.830;2023-04-24T04:47:53;7.70;99.90
2030;DHT22;1020;48.854;8.830;2023-04-24T04:50:21;7.70;99.90
2030;DHT22;1020;48.854;8.830;2023-04-24T04:52:48;7.70;99.90
2030;DHT22;1020;48.854;8.830;2023-04-24T04:55:15;7.70;99.90
2030;DHT22;1020;48.854;8.830;2023-04-24T04:57:42;7.70;99.90
2030;DHT22;1020;48.854;8.830;2023-04-24T05:00:10;7.60;99.90
2030;DHT22;1020;48.854;8.830;2023-04-24T05:02:37;7.60;99.90
2030;DHT22;1020;48.854;8.830;2023-04-24T05:05:05;7.60;99.90
2030;DHT22;1020;48.854;8.830;2023-04-24T05:07:33;7.60;99.90
2030;DHT22;1020;48.854;8.830;2023-04-24T05:10:00;7.60;99.90
2030;DHT22;1020;48.854;8.830;2023-04-24T05:12:26;7.60;99.90
2030;DHT22;1020;48.854;8.830;2023-04-24T05:14:53;7.70;99.90
2030;DHT22;1020;48.854;8.830;2023-04-24T05:17:20;7.70;99.90
2030;DHT22;1020;48.854;8.830;2023-04-24T05:19:47;7.70;99.90
2030;DHT22;1020;48.854;8.830;2023-04-24T05:22:14;7.80;99.90
2030;DHT22;1020;48.854;8.830;2023-04-24T05:24:42;7.80;99.90
2030;DHT22;1020;48.854;8.830;2023-04-24T05:27:08;7.80;99.90
2030;DHT22;1020;48.854;8.830;2023-04-24T05:29:35;7.90;99.90
2030;DHT22;1020;48.854;8.830;2023-04-24T05:32:02;7.90;99.90
2030;DHT22;1020;48.854;8.830;2023-04-24T05:34:29;8.00;99.90
2030;DHT22;1020;48.854;8.830;2023-04-24T05:36:55;8.00;99.90
2030;DHT22;1020;48.854;8.830;2023-04-24T05:39:22;8.00;99.90
2030;DHT22;1020;48.854;8.830;2023-04-24T05:41:51;8.00;99.90
2030;DHT22;1020;48.854;8.830;2023-04-24T05:44:18;8.00;99.90
2030;DHT22;1020;48.854;8.830;2023-04-24T05:46:45;8.00;99.90
2030;DHT22;1020;48.854;8.830;2023-04-24T05:49:12;8.10;99.90
2030;DHT22;1020;48.854;8.830;2023-04-24T05:51:38;8.10;99.90
2030;DHT22;1020;48.854;8.830;2023-04-24T05:54:05;8.20;99.90
2030;DHT22;1020;48.854;8.830;2023-04-24T05:56:32;8.30;99.90
2030;DHT22;1020;48.854;8.830;2023-04-24T05:59:00;8.40;99.90
2030;DHT22;1020;48.854;8.830;2023-04-24T06:01:27;8.50;99.90
2030;DHT22;1020;48.854;8.830;2023-04-24T06:03:54;8.50;99.90
2030;DHT22;1020;48.854;8.830;2023-04-24T06:06:20;8.60;99.90
2030;DHT22;1020;48.854;8.830;2023-04-24T06:08:47;8.80;99.90
2030;DHT22;1020;48.854;8.830;2023-04-24T06:11:14;9.00;99.90
2030;DHT22;1020;48.854;8.830;2023-04-24T06:13:41;9.10;99.90
2030;DHT22;1020;48.854;8.830;2023-04-24T06:16:09;9.20;99.90
2030;DHT22;1020;48.854;8.830;2023-04-24T06:18:36;9.10;99.90
2030;DHT22;1020;48.854;8.830;2023-04-24T06:21:04;9.30;99.90
2030;DHT22;1020;48.854;8.830;2023-04-24T06:23:31;9.40;99.90
2030;DHT22;1020;48.854;8.830;2023-04-24T06:25:58;9.40;95.20
2030;DHT22;1020;48.854;8.830;2023-04-24T06:28:26;9.40;90.60
2030;DHT22;1020;48.854;8.830;2023-04-24T06:30:52;9.50;74.90
2030;DHT22;1020;48.854;8.830;2023-04-24T06:33:20;9.70;81.20
2030;DHT22;1020;48.854;8.830;2023-04-24T06:35:47;9.80;56.00
2030;DHT22;1020;48.854;8.830;2023-04-24T06:38:14;10.00;38.20
2030;DHT22;1020;48.854;8.830;2023-04-24T06:40:41;10.10;14.40
2030;DHT22;1020;48.854;8.830;2023-04-24T06:43:08;10.20;11.00
2030;DHT22;1020;48.854;8.830;2023-04-24T06:45:36;10.20;1.00
2030;DHT22;1020;48.854;8.830;2023-04-24T06:48:03;10.00;1.00
2030;DHT22;1020;48.854;8.830;2023-04-24T06:50:32;10.20;1.00
2030;DHT22;1020;48.854;8.830;2023-04-24T06:52:58;10.30;1.00
2030;DHT22;1020;48.854;8.830;2023-04-24T06:55:25;10.30;1.00
2030;DHT22;1020;48.854;8.830;2023-04-24T06:57:52;10.10;1.00
2030;DHT22;1020;48.854;8.830;2023-04-24T07:00:19;10.10;1.00
2030;DHT22;1020;48.854;8.830;2023-04-24T07:02:46;9.90;1.00
2030;DHT22;1020;48.854;8.830;2023-04-24T07:05:13;9.90;1.00
2030;DHT22;1020;48.854;8.830;2023-04-24T07:07:42;10.00;1.00
2030;DHT22;1020;48.854;8.830;2023-04-24T07:10:09;9.90;1.00
2030;DHT22;1020;48.854;8.830;2023-04-24T07:12:36;10.20;1.00
2030;DHT22;1020;48.854;8.830;2023-04-24T07:15:04;10.30;99.90
2030;DHT22;1020;48.854;8.830;2023-04-24T07:17:31;10.40;99.90
2030;DHT22;1020;48.854;8.830;2023-04-24T07:19:58;10.10;99.90
2030;DHT22;1020;48.854;8.830;2023-04-24T07:22:25;9.90;99.90
2030;DHT22;1020;48.854;8.830;2023-04-24T07:24:53;9.80;99.90
2030;DHT22;1020;48.854;8.830;2023-04-24T07:27:20;9.70;99.90
2030;DHT22;1020;48.854;8.830;2023-04-24T07:29:47;9.70;1.00
2030;DHT22;1020;48.854;8.830;2023-04-24T07:32:13;9.70;99.90
2030;DHT22;1020;48.854;8.830;2023-04-24T07:34:40;9.70;99.90
2030;DHT22;1020;48.854;8.830;2023-04-24T07:37:07;9.60;99.90
2030;DHT22;1020;48.854;8.830;2023-04-24T07:39:34;9.80;99.90
2030;DHT22;1020;48.854;8.830;2023-04-24T07:42:02;9.90;99.90
2030;DHT22;1020;48.854;8.830;2023-04-24T07:44:29;9.90;99.90
2030;DHT22;1020;48.854;8.830;2023-04-24T07:46:57;9.80;99.90
2030;DHT22;1020;48.854;8.830;2023-04-24T07:49:24;9.70;99.90
2030;DHT22;1020;48.854;8.830;2023-04-24T07:51:51;9.60;99.90
2030;DHT22;1020;48.854;8.830;2023-04-24T07:54:18;9.50;99.90
2030;DHT22;1020;48.854;8.830;2023-04-24T07:56:44;9.50;99.90
2030;DHT22;1020;48.854;8.830;2023-04-24T07:59:13;9.40;99.90
2030;DHT22;1020;48.854;8.830;2023-04-24T08:01:39;9.20;99.90
2030;DHT22;1020;48.854;8.830;2023-04-24T08:04:07;9.20;99.90
2030;DHT22;1020;48.854;8.830;2023-04-24T08:06:34;9.70;42.80
2030;DHT22;1020;48.854;8.830;2023-04-24T08:09:01;10.10;1.00
2030;DHT22;1020;48.854;8.830;2023-04-24T08:11:28;10.30;1.00
2030;DHT22;1020;48.854;8.830;2023-04-24T08:13:55;10.00;1.00
2030;DHT22;1020;48.854;8.830;2023-04-24T08:16:23;10.20;1.00
2030;DHT22;1020;48.854;8.830;2023-04-24T08:18:50;10.80;1.00
2030;DHT22;1020;48.854;8.830;2023-04-24T08:21:20;11.00;1.00
2030;DHT22;1020;48.854;8.830;2023-04-24T08:23:49;11.30;1.00
2030;DHT22;1020;48.854;8.830;2023-04-24T08:26:18;11.50;1.00
2030;DHT22;1020;48.854;8.830;2023-04-24T08:28:45;11.50;1.00
2030;DHT22;1020;48.854;8.830;2023-04-24T08:31:12;11.30;1.00
2030;DHT22;1020;48.854;8.830;2023-04-24T08:33:40;11.20;1.00
2030;DHT22;1020;48.854;8.830;2023-04-24T08:36:08;11.00;1.00
2030;DHT22;1020;48.854;8.830;2023-04-24T08:38:35;11.20;1.00
2030;DHT22;1020;48.854;8.830;2023-04-24T08:41:01;10.80;1.00
2030;DHT22;1020;48.854;8.830;2023-04-24T08:43:30;10.90;1.00
2030;DHT22;1020;48.854;8.830;2023-04-24T08:45:59;11.20;1.00
2030;DHT22;1020;48.854;8.830;2023-04-24T08:48:26;11.40;1.00
2030;DHT22;1020;48.854;8.830;2023-04-24T08:50:56;11.20;1.00
2030;DHT22;1020;48.854;8.830;2023-04-24T08:53:24;10.80;1.00
2030;DHT22;1020;48.854;8.830;2023-04-24T08:55:51;10.50;1.00
2030;DHT22;1020;48.854;8.830;2023-04-24T08:58:19;10.40;1.00
2030;DHT22;1020;48.854;8.830;2023-04-24T09:00:46;10.90;1.00
2030;DHT22;1020;48.854;8.830;2023-04-24T09:03:13;11.70;1.00
2030;DHT22;1020;48.854;8.830;2023-04-24T09:05:42;12.00;1.00
2030;DHT22;1020;48.854;8.830;2023-04-24T09:08:13;12.30;1.00
2030;DHT22;1020;48.854;8.830;2023-04-24T09:10:40;12.30;1.00
2030;DHT22;1020;48.854;8.830;2023-04-24T09:13:07;11.70;99.90
2030;DHT22;1020;48.854;8.830;2023-04-24T09:15:35;11.20;99.90
2030;DHT22;1020;48.854;8.830;2023-04-24T09:18:03;11.20;99.90
2030;DHT22;1020;48.854;8.830;2023-04-24T09:20:31;11.50;99.90
2030;DHT22;1020;48.854;8.830;2023-04-24T09:22:58;11.80;99.90
2030;DHT22;1020;48.854;8.830;2023-04-24T09:25:31;12.00;99.90
2030;DHT22;1020;48.854;8.830;2023-04-24T09:28:00;12.10;99.90
2030;DHT22;1020;48.854;8.830;2023-04-24T09:30:28;11.90;99.90
2030;DHT22;1020;48.854;8.830;2023-04-24T09:33:10;12.10;99.90
2030;DHT22;1020;48.854;8.830;2023-04-24T09:35:40;12.40;99.90
2030;DHT22;1020;48.854;8.830;2023-04-24T09:38:08;12.90;99.90
2030;DHT22;1020;48.854;8.830;2023-04-24T09:40:36;11.90;99.90
2030;DHT22;1020;48.854;8.830;2023-04-24T09:43:03;12.00;99.90
2030;DHT22;1020;48.854;8.830;2023-04-24T09:45:35;11.90;99.90
2030;DHT22;1020;48.854;8.830;2023-04-24T09:48:03;11.60;99.90
2030;DHT22;1020;48.854;8.830;2023-04-24T09:50:30;10.90;99.90
2030;DHT22;1020;48.854;8.830;2023-04-24T09:53:02;11.10;99.90
2030;DHT22;1020;48.854;8.830;2023-04-24T09:55:29;11.60;99.90
2030;DHT22;1020;48.854;8.830;2023-04-24T09:57:59;11.60;99.90
2030;DHT22;1020;48.854;8.830;2023-04-24T10:00:28;12.10;99.90
2030;DHT22;1020;48.854;8.830;2023-04-24T10:02:57;12.20;99.90
2030;DHT22;1020;48.854;8.830;2023-04-24T10:05:26;12.50;99.90
2030;DHT22;1020;48.854;8.830;2023-04-24T10:07:56;12.20;99.90
2030;DHT22;1020;48.854;8.830;2023-04-24T10:10:23;11.40;99.90
2030;DHT22;1020;48.854;8.830;2023-04-24T10:12:51;11.10;99.90
2030;DHT22;1020;48.854;8.830;2023-04-24T10:15:20;10.90;99.90
2030;DHT22;1020;48.854;8.830;2023-04-24T10:17:48;10.80;99.90
2030;DHT22;1020;48.854;8.830;2023-04-24T10:20:18;10.80;99.90
2030;DHT22;1020;48.854;8.830;2023-04-24T10:22:47;10.70;99.90
2030;DHT22;1020;48.854;8.830;2023-04-24T10:25:17;10.80;99.90
2030;DHT22;1020;48.854;8.830;2023-04-24T10:27:45;10.60;99.90
2030;DHT22;1020;48.854;8.830;2023-04-24T10:30:13;10.30;99.90
2030;DHT22;1020;48.854;8.830;2023-04-24T10:32:41;10.30;99.90
2030;DHT22;1020;48.854;8.830;2023-04-24T10:35:09;10.00;99.90
2030;DHT22;1020;48.854;8.830;2023-04-24T10:37:37;10.00;99.90
2030;DHT22;1020;48.854;8.830;2023-04-24T10:40:07;10.20;99.90
2030;DHT22;1020;48.854;8.830;2023-04-24T10:42:35;10.00;99.90
2030;DHT22;1020;48.854;8.830;2023-04-24T10:45:06;9.80;99.90
2030;DHT22;1020;48.854;8.830;2023-04-24T10:47:51;9.70;99.90
2030;DHT22;1020;48.854;8.830;2023-04-24T10:50:18;9.70;1.00
2030;DHT22;1020;48.854;8.830;2023-04-24T10:52:46;9.90;1.00
2030;DHT22;1020;48.854;8.830;2023-04-24T10:55:14;10.10;1.00
2030;DHT22;1020;48.854;8.830;2023-04-24T10:58:01;9.00;1.00
2030;DHT22;1020;48.854;8.830;2023-04-24T11:00:28;10.60;1.00
2030;DHT22;1020;48.854;8.830;2023-04-24T11:02:57;11.00;1.00
2030;DHT22;1020;48.854;8.830;2023-04-24T11:05:49;11.50;1.00
2030;DHT22;1020;48.854;8.830;2023-04-24T11:08:22;12.60;1.00
2030;DHT22;1020;48.854;8.830;2023-04-24T11:10:56;12.40;99.90
2030;DHT22;1020;48.854;8.830;2023-04-24T11:13:24;12.70;99.90
2030;DHT22;1020;48.854;8.830;2023-04-24T11:16:12;12.10;99.90
2030;DHT22;1020;48.854;8.830;2023-04-24T11:18:42;11.40;99.90
2030;DHT22;1020;48.854;8.830;2023-04-24T11:21:12;10.80;99.90
2030;DHT22;1020;48.854;8.830;2023-04-24T11:23:39;10.10;1.00
2030;DHT22;1020;48.854;8.830;2023-04-24T11:26:13;9.80;1.00
2030;DHT22;1020;48.854;8.830;2023-04-24T11:28:47;10.30;1.00
2030;DHT22;1020;48.854;8.830;2023-04-24T11:31:39;11.50;1.00
2030;DHT22;1020;48.854;8.830;2023-04-24T11:34:10;11.60;1.00
2030;DHT22;1020;48.854;8.830;2023-04-24T11:36:37;10.20;1.00
2030;DHT22;1020;48.854;8.830;2023-04-24T11:39:05;12.70;99.90
2030;DHT22;1020;48.854;8.830;2023-04-24T11:41:32;13.00;99.90
2030;DHT22;1020;48.854;8.830;2023-04-24T11:43:59;13.00;99.90
2030;DHT22;1020;48.854;8.830;2023-04-24T11:46:28;12.20;99.90
2030;DHT22;1020;48.854;8.830;2023-04-24T11:48:56;12.00;99.90
2030;DHT22;1020;48.854;8.830;2023-04-24T11:51:24;11.70;99.90
2030;DHT22;1020;48.854;8.830;2023-04-24T11:53:52;11.10;99.90
2030;DHT22;1020;48.854;8.830;2023-04-24T11:56:19;10.80;99.90
2030;DHT22;1020;48.854;8.830;2023-04-24T11:58:46;10.70;99.90
2030;DHT22;1020;48.854;8.830;2023-04-24T12:01:13;10.70;99.90
2030;DHT22;1020;48.854;8.830;2023-04-24T12:03:40;10.90;99.90
2030;DHT22;1020;48.854;8.830;2023-04-24T12:06:11;11.30;99.90
2030;DHT22;1020;48.854;8.830;2023-04-24T12:08:39;11.50;99.90
2030;DHT22;1020;48.854;8.830;2023-04-24T12:11:07;11.20;99.90
2030;DHT22;1020;48.854;8.830;2023-04-24T12:13:34;11.20;99.90
2030;DHT22;1020;48.854;8.830;2023-04-24T12:16:03;10.80;99.90
2030;DHT22;1020;48.854;8.830;2023-04-24T12:18:30;10.70;99.90
2030;DHT22;1020;48.854;8.830;2023-04-24T12:21:19;10.70;99.90
2030;DHT22;1020;48.854;8.830;2023-04-24T12:23:47;10.80;99.90
2030;DHT22;1020;48.854;8.830;2023-04-24T12:26:18;10.90;99.90
2030;DHT22;1020;48.854;8.830;2023-04-24T12:28:47;10.60;99.90
2030;DHT22;1020;48.854;8.830;2023-04-24T12:31:14;10.40;99.90
2030;DHT22;1020;48.854;8.830;2023-04-24T12:33:41;10.10;1.00
2030;DHT22;1020;48.854;8.830;2023-04-24T12:36:10;10.60;1.00
2030;DHT22;1020;48.854;8.830;2023-04-24T12:38:38;10.90;99.90
2030;DHT22;1020;48.854;8.830;2023-04-24T12:41:09;11.50;1.00
2030;DHT22;1020;48.854;8.830;2023-04-24T12:43:36;11.80;1.00
2030;DHT22;1020;48.854;8.830;2023-04-24T12:46:03;11.20;1.00
2030;DHT22;1020;48.854;8.830;2023-04-24T12:48:30;11.30;1.00
2030;DHT22;1020;48.854;8.830;2023-04-24T12:50:57;10.50;1.00
2030;DHT22;1020;48.854;8.830;2023-04-24T12:53:27;10.60;1.00
2030;DHT22;1020;48.854;8.830;2023-04-24T12:55:55;11.10;1.00
2030;DHT22;1020;48.854;8.830;2023-04-24T12:58:23;11.30;1.00
2030;DHT22;1020;48.854;8.830;2023-04-24T13:00:50;11.40;1.00
2030;DHT22;1020;48.854;8.830;2023-04-24T13:03:17;11.50;1.00
2030;DHT22;1020;48.854;8.830;2023-04-24T13:05:44;12.00;1.00
2030;DHT22;1020;48.854;8.830;2023-04-24T13:08:11;12.40;1.00
2030;DHT22;1020;48.854;8.830;2023-04-24T13:10:39;12.60;1.00
2030;DHT22;1020;48.854;8.830;2023-04-24T13:13:06;12.90;1.00
2030;DHT22;1020;48.854;8.830;2023-04-24T13:15:35;12.80;1.00
2030;DHT22;1020;48.854;8.830;2023-04-24T13:18:02;13.70;1.00
2030;DHT22;1020;48.854;8.830;2023-04-24T13:20:28;14.10;99.90
2030;DHT22;1020;48.854;8.830;2023-04-24T13:22:55;13.90;99.90
2030;DHT22;1020;48.854;8.830;2023-04-24T13:25:22;13.30;99.90
2030;DHT22;1020;48.854;8.830;2023-04-24T13:27:50;12.90;99.90
2030;DHT22;1020;48.854;8.830;2023-04-24T13:30:17;12.40;99.90
2030;DHT22;1020;48.854;8.830;2023-04-24T13:32:45;12.70;99.90
2030;DHT22;1020;48.854;8.830;2023-04-24T13:35:12;13.30;99.90
2030;DHT22;1020;48.854;8.830;2023-04-24T13:37:38;13.00;99.90
2030;DHT22;1020;48.854;8.830;2023-04-24T13:40:06;12.50;99.90
2030;DHT22;1020;48.854;8.830;2023-04-24T13:42:33;12.50;99.90
2030;DHT22;1020;48.854;8.830;2023-04-24T13:45:00;12.30;99.90
2030;DHT22;1020;48.854;8.830;2023-04-24T13:47:27;11.90;99.90
2030;DHT22;1020;48.854;8.830;2023-04-24T13:49:55;10.00;99.90
2030;DHT22;1020;48.854;8.830;2023-04-24T13:52:21;11.60;99.90
2030;DHT22;1020;48.854;8.830;2023-04-24T13:54:48;11.70;99.90
2030;DHT22;1020;48.854;8.830;2023-04-24T13:57:15;12.30;99.90
2030;DHT22;1020;48.854;8.830;2023-04-24T13:59:42;12.30;99.90
2030;DHT22;1020;48.854;8.830;2023-04-24T14:02:10;12.30;99.90
2030;DHT22;1020;48.854;8.830;2023-04-24T14:04:37;13.80;99.90
2030;DHT22;1020;48.854;8.830;2023-04-24T14:07:05;12.00;99.90
2030;DHT22;1020;48.854;8.830;2023-04-24T14:09:32;12.30;99.90
2030;DHT22;1020;48.854;8.830;2023-04-24T14:11:58;11.90;99.90
2030;DHT22;1020;48.854;8.830;2023-04-24T14:14:26;12.20;99.90
2030;DHT22;1020;48.854;8.830;2023-04-24T14:16:55;12.40;99.90
2030;DHT22;1020;48.854;8.830;2023-04-24T14:19:21;12.10;99.90
2030;DHT22;1020;48.854;8.830;2023-04-24T14:21:49;12.30;99.90
2030;DHT22;1020;48.854;8.830;2023-04-24T14:24:17;12.10;99.90
2030;DHT22;1020;48.854;8.830;2023-04-24T14:26:44;11.80;99.90
2030;DHT22;1020;48.854;8.830;2023-04-24T14:29:11;10.10;99.90
2030;DHT22;1020;48.854;8.830;2023-04-24T14:31:37;11.70;99.90
2030;DHT22;1020;48.854;8.830;2023-04-24T14:34:04;11.70;99.90
2030;DHT22;1020;48.854;8.830;2023-04-24T14:36:31;11.70;99.90
2030;DHT22;1020;48.854;8.830;2023-04-24T14:38:58;11.60;99.90
2030;DHT22;1020;48.854;8.830;2023-04-24T14:41:26;11.70;99.90
2030;DHT22;1020;48.854;8.830;2023-04-24T14:43:53;11.90;99.90
2030;DHT22;1020;48.854;8.830;2023-04-24T14:46:20;12.00;99.90
2030;DHT22;1020;48.854;8.830;2023-04-24T14:48:47;12.30;99.90
2030;DHT22;1020;48.854;8.830;2023-04-24T14:51:13;12.10;99.90
2030;DHT22;1020;48.854;8.830;2023-04-24T14:53:40;11.80;99.90
2030;DHT22;1020;48.854;8.830;2023-04-24T14:56:07;11.70;99.90
2030;DHT22;1020;48.854;8.830;2023-04-24T14:58:35;11.30;99.90
2030;DHT22;1020;48.854;8.830;2023-04-24T15:01:02;11.00;99.90
2030;DHT22;1020;48.854;8.830;2023-04-24T15:03:29;10.60;99.90
2030;DHT22;1020;48.854;8.830;2023-04-24T15:05:56;10.40;1.00
2030;DHT22;1020;48.854;8.830;2023-04-24T15:08:23;10.10;1.00
2030;DHT22;1020;48.854;8.830;2023-04-24T15:10:49;10.10;1.00
2030;DHT22;1020;48.854;8.830;2023-04-24T15:13:16;10.50;1.00
2030;DHT22;1020;48.854;8.830;2023-04-24T15:15:46;10.80;1.00
2030;DHT22;1020;48.854;8.830;2023-04-24T15:18:12;11.30;1.00
2030;DHT22;1020;48.854;8.830;2023-04-24T15:20:39;11.10;1.00
2030;DHT22;1020;48.854;8.830;2023-04-24T15:23:07;11.20;1.00
2030;DHT22;1020;48.854;8.830;2023-04-24T15:25:35;11.50;1.00
2030;DHT22;1020;48.854;8.830;2023-04-24T15:28:02;11.30;1.00
2030;DHT22;1020;48.854;8.830;2023-04-24T15:30:30;11.30;1.00
2030;DHT22;1020;48.854;8.830;2023-04-24T15:32:59;11.80;1.00
2030;DHT22;1020;48.854;8.830;2023-04-24T15:35:26;12.00;1.00
2030;DHT22;1020;48.854;8.830;2023-04-24T15:37:53;11.80;99.90
2030;DHT22;1020;48.854;8.830;2023-04-24T15:40:20;11.60;99.90
2030;DHT22;1020;48.854;8.830;2023-04-24T15:42:47;11.60;99.90
2030;DHT22;1020;48.854;8.830;2023-04-24T15:45:14;11.70;99.90
2030;DHT22;1020;48.854;8.830;2023-04-24T15:47:41;11.30;99.90
2030;DHT22;1020;48.854;8.830;2023-04-24T15:50:09;11.20;99.90
2030;DHT22;1020;48.854;8.830;2023-04-24T15:52:36;11.30;99.90
2030;DHT22;1020;48.854;8.830;2023-04-24T15:55:04;11.10;99.90
2030;DHT22;1020;48.854;8.830;2023-04-24T15:57:31;11.10;99.90
2030;DHT22;1020;48.854;8.830;2023-04-24T15:59:58;10.20;99.90
2030;DHT22;1020;48.854;8.830;2023-04-24T16:02:25;11.60;99.90
2030;DHT22;1020;48.854;8.830;2023-04-24T16:04:52;11.40;99.90
2030;DHT22;1020;48.854;8.830;2023-04-24T16:07:20;11.60;99.90
2030;DHT22;1020;48.854;8.830;2023-04-24T16:09:47;11.60;99.90
2030;DHT22;1020;48.854;8.830;2023-04-24T16:12:14;11.70;99.90
2030;DHT22;1020;48.854;8.830;2023-04-24T16:14:42;11.70;99.90